This is the latest recevied weather packets stored in our database for station/object FREPRT-WX. If no packets are shown the sender has not sent any weather packets the latest 10 day(s).
| Time | Temp. | Humidity | Pressure | Rain* | Wind** | Luminosity | Snow |
|---|---|---|---|---|---|---|---|
| 1777967140 | 12.78° C | 76% | 971.4 hPa | 0 mm | - | - | - |
| 1777966260 | 12.78° C | 76% | 971.4 hPa | 0 mm | - | - | - |
| 1777965340 | 13.33° C | 76% | 971.5 hPa | 0 mm | - | - | - |
| 1777964472 | 13.89° C | 76% | 971.5 hPa | 0 mm | - | - | - |
| 1777963539 | 13.33° C | 77% | 972.1 hPa | 0 mm | - | - | - |
| 1777962656 | 13.89° C | 74% | 971.5 hPa | 0 mm | - | - | - |
| 1777961741 | 13.89° C | 74% | 971.5 hPa | 0 mm | - | - | - |
| 1777960881 | 14.44° C | 74% | 971.5 hPa | 0 mm | - | - | - |
| 1777959940 | 14.44° C | 74% | 972.6 hPa | 0 mm | - | - | - |
| 1777959063 | 14.44° C | 66% | 971.2 hPa | 0 mm | - | - | - |
| 1777958139 | 15° C | 66% | 971.3 hPa | 0 mm | - | - | - |
| 1777957270 | 15.56° C | 66% | 971.3 hPa | 0 mm | - | - | - |
| 1777956339 | 15.56° C | 60% | 971.1 hPa | 0 mm | - | - | - |
| 1777955462 | 16.11° C | 62% | 971.1 hPa | 0 mm | - | - | - |
| 1777954539 | 16.67° C | 62% | 971.4 hPa | 0 mm | - | - | - |
| 1777953675 | 16.67° C | 62% | 971.4 hPa | 0 mm | - | - | - |
| 1777952736 | 16.67° C | 61% | 971 hPa | 0 mm | - | - | - |
| 1777951859 | 16.67° C | 65% | 971 hPa | 0 mm | - | - | - |
| 1777950939 | 16.67° C | 65% | 971 hPa | 0 mm | - | - | - |
| 1777950071 | 16.67° C | 65% | 971 hPa | 0 mm | - | - | - |
| 1777949139 | 17.22° C | 54% | 971.3 hPa | 0 mm | - | - | - |
| 1777948260 | 17.78° C | 55% | 971.4 hPa | 0 mm | - | - | - |
| 1777947339 | 17.22° C | 55% | 971.4 hPa | 0 mm | - | - | - |
| 1777946471 | 17.22° C | 55% | 971.4 hPa | 0 mm | - | - | - |
| 1777945539 | 17.78° C | 45% | 970.5 hPa | 0 mm | - | - | - |
* Rain latest hour (hover to see other rain measurements)
** Current wind speed in m/s (hover to see current wind gust speed)